Time;durP1;ratioP1;P1;durP2;ratioP2;P2;SDS_P1;SDS_P2;PMS_P1;PMS_P2;Temp;Humidity;BMP_temperature;BMP_pressure;BME280_temperature;BME280_humidity;BME280_pressure;Samples;Min_cycle;Max_cycle;Signal;HPM_P1;HPM_P2
2022/02/10 00:17:48;;;;;;;11.25;5.63;;;3.90;99.90;;;;;;5092045;28;20059;-71
2022/02/10 00:20:27;;;;;;;10.52;5.85;;;3.90;99.90;;;;;;5091762;28;20028;-70
2022/02/10 00:23:26;;;;;;;7.15;5.82;;;3.90;99.90;;;;;;5086706;28;20158;-71
2022/02/10 00:36:40;;;;;;;9.45;6.15;;;3.70;99.90;;;;;;5074771;28;20415;-71
2022/02/10 00:41:50;;;;;;;9.50;6.00;;;3.60;99.90;;;;;;5092229;28;20096;-71
2022/02/10 00:44:16;;;;;;;12.27;6.38;;;3.60;99.90;;;;;;5081699;28;20460;-71
2022/02/10 00:46:41;;;;;;;8.20;5.95;;;3.60;99.90;;;;;;5074019;28;20031;-71
2022/02/10 00:49:08;;;;;;;8.07;5.97;;;3.50;99.90;;;;;;5071303;28;20024;-71
2022/02/10 00:51:34;;;;;;;8.15;4.53;;;3.50;99.90;;;;;;5085606;28;20460;-70
2022/02/10 00:54:00;;;;;;;9.07;5.63;;;3.40;99.90;;;;;;5091808;28;20419;-70
2022/02/10 00:56:25;;;;;;;10.07;5.90;;;3.40;99.90;;;;;;5091135;28;20030;-70
2022/02/10 00:59:09;;;;;;;10.93;6.30;;;3.40;99.90;;;;;;5089925;28;20028;-70
2022/02/10 01:10:25;;;;;;;12.55;6.60;;;3.30;99.90;;;;;;5051879;28;20040;-72
2022/02/10 01:12:51;;;;;;;10.33;5.43;;;3.30;99.90;;;;;;5067224;28;20032;-70
2022/02/10 01:31:46;;;;;;;11.38;6.38;;;3.00;99.90;;;;;;5079226;28;20035;-68
2022/02/10 01:34:11;;;;;;;9.80;6.40;;;3.10;99.90;;;;;;5082155;28;20031;-70
2022/02/10 01:36:37;;;;;;;9.48;5.72;;;3.10;99.90;;;;;;5091033;28;20020;-68
2022/02/10 01:39:04;;;;;;;10.35;5.70;;;3.00;99.90;;;;;;5089720;28;20035;-71
2022/02/10 02:03:47;;;;;;;13.02;6.60;;;3.00;99.90;;;;;;5084880;28;20035;-70
2022/02/10 02:06:21;;;;;;;10.00;7.03;;;3.00;99.90;;;;;;5085557;28;20028;-69
2022/02/10 02:08:47;;;;;;;11.68;6.95;;;2.90;99.90;;;;;;5088519;28;20123;-71
2022/02/10 02:11:12;;;;;;;10.73;6.68;;;2.90;99.90;;;;;;5090918;28;20099;-71
2022/02/10 02:13:38;;;;;;;11.68;6.70;;;2.80;99.90;;;;;;5081674;28;20024;-71
2022/02/10 02:16:04;;;;;;;9.98;6.90;;;2.80;99.90;;;;;;5075901;28;20149;-69
2022/02/10 02:18:30;;;;;;;10.45;6.72;;;2.70;99.90;;;;;;5079773;28;20073;-69
2022/02/10 02:20:58;;;;;;;10.70;7.00;;;2.70;99.90;;;;;;5071359;28;20024;-69
2022/02/10 02:23:26;;;;;;;10.52;6.57;;;2.70;99.90;;;;;;5086466;28;20028;-69
2022/02/10 02:26:19;;;;;;;11.13;7.28;;;2.60;99.90;;;;;;5087529;28;20547;-68
2022/02/10 02:28:43;;;;;;;10.75;6.45;;;2.60;99.90;;;;;;5078303;28;20044;-68
2022/02/10 02:31:14;;;;;;;9.98;6.40;;;2.60;99.90;;;;;;5085578;28;20017;-69
2022/02/10 03:09:01;;;;;;;9.57;6.53;;;2.40;99.90;;;;;;5088727;28;20034;-71
2022/02/10 03:11:26;;;;;;;12.50;6.75;;;2.40;99.90;;;;;;5075292;28;20020;-68
2022/02/10 03:14:00;;;;;;;9.50;6.30;;;2.50;99.90;;;;;;5070158;28;20028;-71
2022/02/10 03:16:49;;;;;;;10.48;6.28;;;2.50;99.90;;;;;;5077134;28;20024;-70
2022/02/10 04:15:30;;;;;;;10.73;5.00;;;2.10;99.90;;;;;;5092484;28;20055;-71
2022/02/10 05:06:02;;;;;;;8.43;5.28;;;2.10;99.90;;;;;;5087037;28;20032;-70
2022/02/10 05:19:14;;;;;;;7.97;4.93;;;2.10;99.90;;;;;;5139238;22;20127;-90
2022/02/10 05:24:26;;;;;;;6.45;3.85;;;2.20;99.90;;;;;;5087319;28;20074;-89
2022/02/10 05:34:56;;;;;;;6.22;4.00;;;2.40;99.90;;;;;;5093752;28;20069;-90
2022/02/10 05:37:27;;;;;;;5.20;3.45;;;2.40;99.90;;;;;;5074255;28;20107;-89
2022/02/10 05:39:55;;;;;;;5.38;3.53;;;2.50;99.90;;;;;;5075283;28;20111;-89
2022/02/10 05:45:18;;;;;;;5.60;3.25;;;2.50;99.90;;;;;;5094356;28;20020;-90
2022/02/10 05:48:03;;;;;;;;;;;2.50;99.90;;;;;;5074711;28;20499;-90
2022/02/10 05:58:35;;;;;;;4.72;3.10;;;2.50;99.90;;;;;;5093153;28;20073;-89
2022/02/10 06:01:49;;;;;;;5.03;2.90;;;2.60;99.90;;;;;;5075361;28;20119;-89
2022/02/10 07:06:31;;;;;;;5.88;2.95;;;3.30;99.90;;;;;;5091661;28;20032;-90
2022/02/10 07:15:15;;;;;;;5.57;3.25;;;3.40;99.90;;;;;;5092311;28;20402;-90
2022/02/10 07:17:19;;;;;;;5.38;3.30;;;3.50;99.90;;;;;;5080412;28;20043;-89
2022/02/10 07:46:32;;;;;;;5.20;3.05;;;7.00;99.90;;;;;;5095584;28;20116;-90
2022/02/10 08:57:08;;;;;;;4.60;2.47;;;8.50;99.90;;;;;;5091421;28;20034;-89
2022/02/10 09:02:43;;;;;;;6.40;2.30;;;8.40;99.90;;;;;;5094128;28;20032;-89
2022/02/10 09:05:30;;;;;;;5.30;2.13;;;8.30;99.90;;;;;;5076078;28;20020;-88
2022/02/10 09:11:20;;;;;;;4.32;2.40;;;8.30;99.90;;;;;;5092880;28;20020;-88
2022/02/10 09:16:18;;;;;;;5.10;2.20;;;8.30;99.90;;;;;;5094235;28;20020;-88
2022/02/10 09:47:24;;;;;;;4.30;2.15;;;8.50;99.90;;;;;;5075470;28;20079;-88
2022/02/10 10:02:13;;;;;;;5.32;2.53;;;9.10;99.90;;;;;;5073425;28;20039;-88
2022/02/10 10:05:25;;;;;;;5.28;2.60;;;9.10;99.90;;;;;;5084725;28;20028;-89
2022/02/10 10:13:38;;;;;;;7.47;2.90;;;9.00;99.90;;;;;;5093190;28;20020;-89
2022/02/10 10:16:38;;;;;;;7.82;3.35;;;8.90;99.90;;;;;;5093167;28;20051;-89
2022/02/10 10:19:27;;;;;;;6.97;3.20;;;8.90;99.90;;;;;;5092065;28;20026;-88
2022/02/10 10:22:24;;;;;;;9.50;3.15;;;8.90;99.90;;;;;;5076871;28;20032;-90
2022/02/10 10:50:37;;;;;;;5.88;3.60;;;9.60;99.90;;;;;;5101459;28;20074;-89
2022/02/10 10:53:54;;;;;;;;;;;9.80;99.90;;;;;;5079503;28;20031;-90
2022/02/10 11:38:23;;;;;;;9.65;4.10;;;9.00;99.90;;;;;;5100190;28;20039;-69
2022/02/10 11:41:43;;;;;;;6.68;4.57;;;8.90;99.90;;;;;;5083503;28;20423;-69
2022/02/10 12:37:48;;;;;;;9.25;4.88;;;8.40;99.90;;;;;;5106921;28;20039;-69
2022/02/10 13:25:17;;;;;;;6.18;4.35;;;7.90;99.90;;;;;;5102170;28;20084;-68
2022/02/10 14:13:21;;;;;;;8.05;3.88;;;7.80;99.90;;;;;;5100803;28;20034;-68
2022/02/10 14:18:27;;;;;;;6.63;4.20;;;7.80;99.90;;;;;;5099267;28;20051;-68
2022/02/10 14:21:05;;;;;;;7.07;4.50;;;7.70;99.90;;;;;;5107578;27;20020;-69
2022/02/10 14:26:04;;;;;;;6.07;3.90;;;7.80;99.90;;;;;;5091388;28;20025;-68
2022/02/10 14:28:31;;;;;;;8.90;4.18;;;7.70;99.90;;;;;;5101051;28;20110;-68
2022/02/10 14:30:58;;;;;;;6.47;3.97;;;7.70;99.90;;;;;;5110851;28;20011;-68
2022/02/10 14:33:28;;;;;;;6.13;3.90;;;7.70;99.90;;;;;;5108936;28;20027;-68
2022/02/10 14:36:21;;;;;;;9.43;3.95;;;7.70;99.90;;;;;;5110308;28;20047;-69
2022/02/10 15:17:01;;;;;;;7.40;4.57;;;7.30;99.90;;;;;;5109515;28;20027;-68
2022/02/10 16:10:48;;;;;;;8.60;4.28;;;7.10;99.90;;;;;;5112665;28;20096;-69
2022/02/10 16:10:52;;;;;;;7.43;3.65;;;7.10;99.90;;;;;;5113023;28;20047;-68
2022/02/10 16:11:02;;;;;;;15.85;7.30;;;7.10;99.90;;;;;;5109241;28;20039;-68
2022/02/10 16:18:22;;;;;;;13.20;7.75;;;7.00;99.90;;;;;;5106763;28;20027;-69
2022/02/10 16:20:56;;;;;;;12.13;8.48;;;7.00;99.90;;;;;;5107332;28;20051;-68
2022/02/10 16:23:24;;;;;;;12.07;5.97;;;7.00;99.90;;;;;;5110441;28;20684;-68
2022/02/10 16:26:01;;;;;;;12.35;7.05;;;7.00;99.90;;;;;;5111611;28;20027;-68
2022/02/10 16:28:30;;;;;;;8.68;5.90;;;7.00;99.90;;;;;;5094646;28;20028;-68
2022/02/10 16:30:56;;;;;;;8.10;4.82;;;7.00;99.90;;;;;;5107282;28;20465;-69
2022/02/10 16:33:22;;;;;;;8.30;5.05;;;7.00;99.90;;;;;;5106287;28;20028;-69
2022/02/10 16:35:48;;;;;;;8.90;4.82;;;6.90;99.90;;;;;;5112734;28;20062;-68
2022/02/10 16:38:14;;;;;;;6.03;4.65;;;7.00;99.90;;;;;;5094624;28;20472;-69
2022/02/10 16:40:41;;;;;;;9.45;5.28;;;6.90;99.90;;;;;;5100315;28;20080;-69
2022/02/10 16:43:07;;;;;;;8.40;4.78;;;6.90;99.90;;;;;;5094921;28;20055;-70
2022/02/10 16:45:34;;;;;;;11.85;6.15;;;6.80;99.90;;;;;;5112079;28;20161;-69
2022/02/10 16:48:00;;;;;;;10.00;6.32;;;6.80;99.90;;;;;;5107302;28;20028;-69
2022/02/10 16:50:26;;;;;;;7.82;4.22;;;6.80;99.90;;;;;;5088003;28;20421;-69
2022/02/10 16:52:58;;;;;;;7.05;4.45;;;6.80;99.90;;;;;;5111830;28;20536;-70
2022/02/10 17:32:43;;;;;;;6.50;4.13;;;6.60;99.90;;;;;;5065313;28;20055;-68
2022/02/10 17:35:20;;;;;;;10.55;4.35;;;6.60;99.90;;;;;;5065570;28;20541;-68
2022/02/10 17:45:53;;;;;;;;;;;6.50;99.90;;;;;;5062963;28;20081;-69
2022/02/10 17:53:48;;;;;;;7.40;3.80;;;6.50;99.90;;;;;;5063791;28;20365;-69
2022/02/10 17:56:13;;;;;;;7.60;4.13;;;6.50;99.90;;;;;;5062545;28;20008;-69
2022/02/10 17:58:39;;;;;;;5.78;4.05;;;6.50;99.90;;;;;;5069561;28;20028;-70
2022/02/10 18:01:07;;;;;;;6.40;3.97;;;6.50;99.90;;;;;;5052784;28;20507;-69
2022/02/10 18:03:33;;;;;;;8.55;4.97;;;6.50;99.90;;;;;;5055112;28;20499;-69
2022/02/10 18:08:30;;;;;;;6.35;3.97;;;6.50;99.90;;;;;;5065727;28;20056;-70
2022/02/10 18:11:29;;;;;;;7.25;4.40;;;6.50;99.90;;;;;;5036901;28;20036;-70
2022/02/10 18:13:50;;;;;;;4.93;3.38;;;6.50;99.90;;;;;;5066035;28;20025;-70
2022/02/10 18:16:21;;;;;;;5.80;3.38;;;6.50;99.90;;;;;;5064835;28;20396;-68
2022/02/10 18:19:09;;;;;;;5.43;3.50;;;6.50;99.90;;;;;;5064118;28;20062;-69
2022/02/10 18:29:36;;;;;;;6.80;4.10;;;6.40;99.90;;;;;;5069767;28;20396;-68
2022/02/10 19:09:55;;;;;;;8.50;4.60;;;6.40;99.90;;;;;;5057282;28;20063;-68
2022/02/10 19:12:27;;;;;;;5.63;3.92;;;6.40;99.90;;;;;;5057810;28;20100;-68
2022/02/10 19:15:04;;;;;;;6.60;4.13;;;6.30;99.90;;;;;;5062313;28;20115;-68
2022/02/10 19:17:29;;;;;;;6.97;4.30;;;6.40;99.90;;;;;;5063354;28;20016;-68
2022/02/10 19:19:55;;;;;;;6.35;4.50;;;6.30;99.90;;;;;;5064508;28;20491;-68
2022/02/10 19:22:22;;;;;;;5.28;3.67;;;6.40;99.90;;;;;;5063497;28;20044;-69
2022/02/10 19:24:48;;;;;;;6.50;4.03;;;6.30;99.90;;;;;;5064791;28;20106;-69
2022/02/10 19:27:16;;;;;;;4.90;3.83;;;6.30;99.90;;;;;;5058597;28;20025;-68
2022/02/10 19:29:45;;;;;;;6.85;3.80;;;6.30;99.90;;;;;;5061796;28;20115;-68
2022/02/10 19:32:14;;;;;;;8.38;4.43;;;6.40;99.90;;;;;;5064700;28;20596;-68
2022/02/10 19:34:41;;;;;;;5.53;3.72;;;6.30;99.90;;;;;;5065107;28;20491;-68
2022/02/10 19:37:09;;;;;;;5.35;3.80;;;6.30;99.90;;;;;;5065143;28;20717;-68
2022/02/10 19:39:37;;;;;;;8.77;4.70;;;6.30;99.90;;;;;;5061793;28;20383;-68
2022/02/10 19:42:03;;;;;;;6.18;4.53;;;6.30;99.90;;;;;;5062186;28;20477;-68
2022/02/10 19:44:29;;;;;;;8.88;3.67;;;6.30;99.90;;;;;;5063169;28;20032;-68
2022/02/10 19:46:57;;;;;;;5.75;3.40;;;6.30;99.90;;;;;;5056829;28;20033;-68
2022/02/10 19:49:24;;;;;;;5.88;3.50;;;6.30;99.90;;;;;;5062201;28;20294;-68
2022/02/10 19:51:50;;;;;;;5.53;3.88;;;6.30;99.90;;;;;;5066604;28;20536;-68
2022/02/10 19:54:23;;;;;;;5.55;4.22;;;6.30;99.90;;;;;;5064336;28;20120;-68
2022/02/10 19:56:53;;;;;;;5.72;3.50;;;6.30;99.90;;;;;;5057854;28;20017;-68
2022/02/10 19:59:20;;;;;;;5.75;4.07;;;6.30;99.90;;;;;;5062589;28;20021;-68
2022/02/10 20:01:48;;;;;;;6.38;3.97;;;6.30;99.90;;;;;;5064416;28;20113;-68
2022/02/10 20:04:14;;;;;;;7.38;4.05;;;6.30;99.90;;;;;;5064920;28;20492;-69
2022/02/10 20:06:39;;;;;;;5.95;3.97;;;6.30;99.90;;;;;;5047327;28;20089;-68
2022/02/10 20:09:05;;;;;;;4.28;3.25;;;6.30;99.90;;;;;;5053174;28;20055;-69
2022/02/10 20:11:31;;;;;;;6.03;3.40;;;6.30;99.90;;;;;;5065034;28;20045;-69
2022/02/10 20:13:56;;;;;;;4.22;3.45;;;6.30;99.90;;;;;;5062152;28;20035;-69
2022/02/10 20:16:22;;;;;;;4.32;3.50;;;6.20;99.90;;;;;;5062170;28;20029;-67
2022/02/10 20:18:48;;;;;;;5.60;3.80;;;6.20;99.90;;;;;;5064496;28;20029;-67
2022/02/10 20:21:15;;;;;;;10.88;6.18;;;6.20;99.90;;;;;;5065152;28;20496;-67
2022/02/10 20:23:41;;;;;;;7.90;4.50;;;6.10;99.90;;;;;;5064994;28;20548;-67
2022/02/10 20:26:08;;;;;;;8.25;4.32;;;6.20;99.90;;;;;;5064483;28;20063;-67
2022/02/10 20:28:35;;;;;;;6.20;3.75;;;6.10;99.90;;;;;;5065065;28;20056;-67
2022/02/10 20:31:01;;;;;;;7.18;4.30;;;6.10;99.90;;;;;;5068295;28;20032;-67
2022/02/10 20:33:29;;;;;;;5.95;3.65;;;6.10;99.90;;;;;;5069706;28;20082;-67
2022/02/10 20:35:57;;;;;;;5.95;3.65;;;6.10;99.90;;;;;;5050890;28;20035;-66
2022/02/10 20:38:23;;;;;;;5.97;3.80;;;6.00;99.90;;;;;;5067079;28;20025;-67
2022/02/10 20:41:00;;;;;;;5.18;3.50;;;6.10;99.90;;;;;;5070506;28;20027;-67
2022/02/10 20:43:26;;;;;;;4.15;3.55;;;6.00;99.90;;;;;;5066262;28;20464;-68
2022/02/10 20:45:56;;;;;;;5.32;3.38;;;6.00;99.90;;;;;;5060705;28;20056;-67
2022/02/10 20:48:23;;;;;;;4.82;3.63;;;6.00;99.90;;;;;;5070490;28;20385;-67
2022/02/10 20:50:56;;;;;;;6.82;3.72;;;6.00;99.90;;;;;;5072374;28;20027;-67
2022/02/10 20:53:24;;;;;;;5.35;3.63;;;6.00;99.90;;;;;;5054392;28;20024;-67
2022/02/10 20:55:54;;;;;;;6.40;3.83;;;5.90;99.90;;;;;;5053948;28;20056;-67
2022/02/10 20:58:22;;;;;;;4.82;3.95;;;5.90;99.90;;;;;;5071149;28;20032;-67
2022/02/10 21:00:50;;;;;;;6.57;4.05;;;5.90;99.90;;;;;;5069227;28;20071;-67
2022/02/10 21:03:18;;;;;;;6.20;4.18;;;5.80;99.90;;;;;;5071584;28;20032;-67
2022/02/10 21:05:45;;;;;;;4.97;3.70;;;5.80;99.90;;;;;;5050100;28;20028;-67
2022/02/10 21:08:17;;;;;;;5.57;3.80;;;5.80;99.90;;;;;;5044338;28;20029;-67
2022/02/10 21:10:43;;;;;;;5.60;3.70;;;5.80;99.90;;;;;;5071300;28;20122;-68
2022/02/10 21:13:11;;;;;;;4.78;3.22;;;5.70;99.90;;;;;;5071171;28;20052;-67
2022/02/10 21:15:43;;;;;;;5.05;3.33;;;5.70;99.90;;;;;;5071814;28;20023;-67
2022/02/10 21:18:10;;;;;;;;;;;5.70;99.90;;;;;;5053471;28;20062;-67
2022/02/10 21:20:37;;;;;;;5.45;3.20;;;5.70;99.90;;;;;;5070824;28;19923;-67
2022/02/10 21:23:28;;;;;;;5.30;3.22;;;5.60;99.90;;;;;;5071713;28;21748;-67
2022/02/10 21:25:56;;;;;;;4.80;3.72;;;5.60;99.90;;;;;;5071364;28;20024;-67
2022/02/10 21:28:27;;;;;;;5.35;3.40;;;5.60;99.90;;;;;;5070574;28;20025;-68
2022/02/10 21:30:56;;;;;;;3.60;3.22;;;5.60;99.90;;;;;;5072044;28;20033;-68
2022/02/10 21:38:25;;;;;;;5.15;3.47;;;5.50;99.90;;;;;;5068873;28;20438;-68
2022/02/10 21:43:01;;;;;;;6.00;3.65;;;5.50;99.90;;;;;;5064850;28;20035;-67
2022/02/10 22:18:47;;;;;;;5.45;3.47;;;5.60;99.90;;;;;;5014108;28;20095;-68
2022/02/10 22:20:48;;;;;;;11.00;4.10;;;5.60;99.90;;;;;;5057716;28;20036;-67
2022/02/10 22:23:23;;;;;;;6.20;3.88;;;5.60;99.90;;;;;;5069186;28;20024;-67
2022/02/10 22:25:52;;;;;;;7.03;4.43;;;5.60;99.90;;;;;;5070042;28;20480;-67
2022/02/10 22:33:59;;;;;;;9.02;4.30;;;5.70;99.90;;;;;;5068568;28;20035;-68
2022/02/10 22:36:25;;;;;;;9.45;3.90;;;5.70;99.90;;;;;;5064785;28;20013;-67
2022/02/10 22:38:54;;;;;;;6.47;3.95;;;5.70;99.90;;;;;;5068786;28;20123;-67
2022/02/10 22:41:20;;;;;;;5.65;3.25;;;5.70;99.90;;;;;;5067988;28;20021;-67
2022/02/10 22:43:49;;;;;;;6.03;3.97;;;5.70;99.90;;;;;;5068690;28;20025;-67
2022/02/10 22:46:15;;;;;;;7.13;3.95;;;5.70;99.90;;;;;;5068247;28;20016;-67
2022/02/10 22:48:43;;;;;;;8.13;4.25;;;5.70;99.90;;;;;;5067860;28;20134;-67
2022/02/10 22:51:09;;;;;;;6.38;3.78;;;5.70;99.90;;;;;;5067556;28;20021;-67
2022/02/10 22:53:35;;;;;;;6.00;4.10;;;5.70;99.90;;;;;;5068442;28;20093;-67
2022/02/10 22:56:00;;;;;;;5.55;3.90;;;5.70;99.90;;;;;;5068969;28;20029;-67
2022/02/10 22:58:27;;;;;;;6.68;4.20;;;5.70;99.90;;;;;;5068494;28;20047;-67
2022/02/10 23:00:54;;;;;;;6.13;3.63;;;5.80;99.90;;;;;;5060311;28;20036;-67
2022/02/10 23:03:24;;;;;;;5.28;3.58;;;5.80;99.90;;;;;;5065009;28;20023;-67
2022/02/10 23:05:50;;;;;;;6.43;3.83;;;5.70;99.90;;;;;;5061905;28;20032;-68
2022/02/10 23:08:17;;;;;;;5.53;3.70;;;5.70;99.90;;;;;;5067500;28;20029;-68
2022/02/10 23:13:10;;;;;;;9.00;5.20;;;5.80;99.90;;;;;;5065138;28;20025;-68
2022/02/10 23:15:39;;;;;;;8.40;5.50;;;5.80;99.90;;;;;;5069560;28;20353;-68
2022/02/10 23:18:09;;;;;;;11.30;6.15;;;5.80;99.90;;;;;;5062253;22;20421;-69
2022/02/10 23:20:36;;;;;;;15.38;8.32;;;5.80;99.90;;;;;;5085809;28;20035;-69
2022/02/10 23:23:05;;;;;;;10.90;6.80;;;5.80;99.90;;;;;;5088532;28;20466;-68
2022/02/10 23:25:32;;;;;;;9.68;6.18;;;5.80;99.90;;;;;;5088906;28;20024;-69
2022/02/10 23:27:59;;;;;;;6.45;4.55;;;5.80;99.90;;;;;;5085591;28;20039;-69
2022/02/10 23:30:25;;;;;;;5.68;4.07;;;5.80;99.90;;;;;;5085095;28;20118;-68
2022/02/10 23:32:54;;;;;;;6.85;3.72;;;5.80;99.90;;;;;;5085191;28;20054;-69
2022/02/10 23:38:04;;;;;;;5.07;3.60;;;5.80;99.90;;;;;;5073313;28;20086;-69
2022/02/10 23:40:34;;;;;;;7.82;3.92;;;5.70;99.90;;;;;;5089741;28;20386;-68
2022/02/10 23:42:59;;;;;;;4.13;3.40;;;5.80;99.90;;;;;;5084784;28;20085;-68
2022/02/10 23:45:28;;;;;;;6.95;4.00;;;5.80;99.90;;;;;;5089270;28;20016;-69
2022/02/10 23:47:54;;;;;;;4.78;3.42;;;5.80;99.90;;;;;;5074577;28;20107;-69
2022/02/10 23:50:25;;;;;;;5.18;3.30;;;5.80;99.90;;;;;;5078612;28;20020;-68
2022/02/10 23:52:56;;;;;;;6.05;3.90;;;5.80;99.90;;;;;;5088438;28;20040;-69
2022/02/10 23:55:30;;;;;;;6.50;3.60;;;5.80;99.90;;;;;;5080497;28;20060;-68
